Terminal Aerodrome Forecast
Issued by NWS Brownsville, TX

Home | Current Version | Previous Version | Text Only | Print | Product List | Glossary On
Versions: 1 2 3 4 5 6 7 8 9 10 11 12 13 14
000
FTUS44 KBRO 312342
TAFHRL
TAF
KHRL 312342Z 0100/0124 16012KT P6SM VCSH FEW020 BKN040
     FM010500 16007KT P6SM VCSH BKN025
      TEMPO 0105/0109 5SM RA BKN020
     FM011500 19010KT P6SM SCT035 BKN040=

USA.gov is the U.S. government's official web portal to all federal, state and local government web resources and services.